Terminal Aerodrome Forecast
Issued by NWS La Crosse, WI

Current Version | Previous Version | Text Only | Print | Product List | Glossary On
Versions: 1 2 3 4 5 6 7 8 9 10 11 12 13 14 15 16 17 18 19 20 21 22 23 24 25 26 27 28 29 30 31 32 33 34 35 36 37 38 39 40
000
FTUS43 KARX 031607 AAA
TAFRST
TAF AMD
KRST 031607Z 0316/0412 24010KT 2SM -SN BR OVC006
     FM031800 28015KT 4SM BR OVC009
     FM032000 30022G31KT 4SM BLSN OVC012
     FM040200 30017G27KT P6SM OVC015
     FM040800 30013G23KT P6SM SCT020=

USA.gov is the U.S. government's official web portal to all federal, state and local government web resources and services.